Time;durP1;ratioP1;P1;durP2;ratioP2;P2;SDS_P1;SDS_P2;PMS_P1;PMS_P2;Temp;Humidity;BMP_temperature;BMP_pressure;BME280_temperature;BME280_humidity;BME280_pressure;Samples;Min_cycle;Max_cycle;Signal;HPM_P1;HPM_P2
2022/08/26 00:00:34;;;;;;;7.32;4.75;;;;;;;20.94;100.00;95978.97;5077810;28;20247;-75
2022/08/26 00:03:02;;;;;;;5.43;4.93;;;;;;;20.99;100.00;95985.19;5083255;28;20207;-75
2022/08/26 00:05:29;;;;;;;7.80;4.68;;;;;;;21.02;98.37;95987.28;5085572;28;20212;-76
2022/08/26 00:07:56;;;;;;;5.78;5.15;;;;;;;20.96;98.33;95972.06;5087519;28;20202;-75
2022/08/26 00:10:23;;;;;;;6.68;4.82;;;;;;;21.05;98.02;95974.91;5083982;28;20212;-75
2022/08/26 00:12:50;;;;;;;5.22;4.82;;;;;;;20.98;97.33;95975.31;5083350;28;20216;-75
2022/08/26 00:15:21;;;;;;;5.25;4.55;;;;;;;21.03;96.93;95966.97;5083611;28;20189;-75
2022/08/26 00:17:49;;;;;;;8.20;5.10;;;;;;;21.06;97.79;95977.34;5086456;28;20282;-75
2022/08/26 00:20:19;;;;;;;5.55;4.95;;;;;;;21.09;98.03;95974.00;5075400;28;20189;-75
2022/08/26 00:22:46;;;;;;;5.18;4.70;;;;;;;21.07;97.10;95973.47;5078640;28;20201;-75
2022/08/26 00:25:14;;;;;;;6.40;4.60;;;;;;;21.13;96.43;95980.47;5078122;28;20220;-76
2022/08/26 00:27:42;;;;;;;5.00;4.60;;;;;;;21.11;95.99;95974.47;5075118;28;20212;-76
2022/08/26 00:30:14;;;;;;;5.60;5.10;;;;;;;21.06;95.76;95971.84;5074745;28;20249;-75
2022/08/26 00:32:42;;;;;;;5.60;5.05;;;;;;;21.05;96.14;95969.41;5098689;28;20200;-75
2022/08/26 00:35:11;;;;;;;5.93;5.20;;;;;;;21.05;97.36;95970.22;5068375;28;20217;-75
2022/08/26 00:37:39;;;;;;;5.10;4.70;;;;;;;21.08;98.21;95968.81;5085446;28;20224;-75
2022/08/26 00:40:07;;;;;;;10.55;5.00;;;;;;;20.98;99.25;95969.00;5079312;28;20193;-76
2022/08/26 00:42:34;;;;;;;5.00;4.60;;;;;;;20.81;100.00;95972.34;5077365;28;20201;-76
2022/08/26 00:45:02;;;;;;;5.38;4.88;;;;;;;20.84;100.00;95979.97;5077233;28;20197;-75
2022/08/26 00:47:34;;;;;;;5.45;4.75;;;;;;;20.82;100.00;95976.72;5083146;28;20204;-75
2022/08/26 00:50:07;;;;;;;5.22;4.60;;;;;;;20.78;100.00;95986.69;5071830;28;20320;-76
2022/08/26 00:52:35;;;;;;;5.53;5.03;;;;;;;20.73;100.00;95973.06;5085454;28;20264;-76
2022/08/26 00:55:06;;;;;;;4.85;4.40;;;;;;;20.75;100.00;95976.31;5078945;28;20196;-76
2022/08/26 00:57:35;;;;;;;5.80;4.78;;;;;;;20.78;99.19;95970.22;5081731;28;20229;-76
2022/08/26 01:00:08;;;;;;;5.72;5.10;;;;;;;20.86;98.31;95977.75;5083133;28;20205;-76
2022/08/26 01:02:35;;;;;;;5.10;4.70;;;;;;;20.90;99.36;95977.97;5084056;28;20196;-76
2022/08/26 01:05:08;;;;;;;5.32;4.80;;;;;;;20.83;100.00;95975.63;5076226;28;20246;-75
2022/08/26 01:07:36;;;;;;;5.40;4.90;;;;;;;20.65;100.00;95969.09;5078638;28;20192;-76
2022/08/26 01:10:06;;;;;;;6.15;4.88;;;;;;;20.61;100.00;95970.00;5079918;28;20228;-75
2022/08/26 01:12:39;;;;;;;6.28;5.07;;;;;;;20.52;100.00;95969.06;5079243;28;20205;-76
2022/08/26 01:15:08;;;;;;;5.05;4.63;;;;;;;20.56;100.00;95970.09;5072221;28;20215;-76
2022/08/26 01:17:37;;;;;;;5.20;4.70;;;;;;;20.63;100.00;95970.50;5071970;28;20228;-76
2022/08/26 01:20:13;;;;;;;5.35;4.90;;;;;;;20.51;100.00;95972.91;5083243;28;20219;-76
2022/08/26 01:22:53;;;;;;;5.40;4.57;;;;;;;20.44;100.00;95959.59;5088484;28;20231;-76
2022/08/26 01:25:22;;;;;;;5.28;4.78;;;;;;;20.39;100.00;95966.00;5085617;28;20232;-76
2022/08/26 01:27:50;;;;;;;6.00;4.78;;;;;;;20.37;100.00;95970.97;5081505;28;20213;-76
2022/08/26 01:30:18;;;;;;;5.10;4.70;;;;;;;20.39;100.00;95963.28;5071569;28;20217;-76
2022/08/26 01:32:46;;;;;;;5.13;4.68;;;;;;;20.50;100.00;95963.09;5071943;28;20326;-76
2022/08/26 01:35:13;;;;;;;6.40;4.90;;;;;;;20.43;100.00;95955.25;5074712;28;20258;-75
2022/08/26 01:37:41;;;;;;;5.68;5.03;;;;;;;20.41;100.00;95964.91;5092435;28;20275;-75
2022/08/26 01:40:18;;;;;;;7.45;5.00;;;;;;;20.43;100.00;95959.91;5083105;28;20203;-75
2022/08/26 01:42:47;;;;;;;4.78;4.38;;;;;;;20.46;100.00;95956.56;5089848;28;20204;-76
2022/08/26 01:45:18;;;;;;;5.22;4.70;;;;;;;20.55;100.00;95954.75;5077524;28;20212;-76
2022/08/26 01:47:47;;;;;;;5.55;4.68;;;;;;;20.58;100.00;95951.41;5082490;28;20204;-75
2022/08/26 01:50:19;;;;;;;5.78;5.18;;;;;;;20.66;99.79;95945.22;5076068;28;20197;-75
2022/08/26 01:52:48;;;;;;;6.60;4.90;;;;;;;20.71;99.07;95948.69;5084180;28;20220;-75
2022/08/26 01:55:20;;;;;;;5.38;4.88;;;;;;;20.73;99.06;95957.41;5073154;28;20301;-75
2022/08/26 01:57:51;;;;;;;5.10;4.57;;;;;;;20.72;99.00;95954.97;5076421;28;20229;-76
2022/08/26 02:00:19;;;;;;;5.00;4.60;;;;;;;20.71;99.49;95961.56;5081315;28;20192;-76
2022/08/26 02:02:49;;;;;;;5.45;4.40;;;;;;;20.75;99.94;95957.13;5085704;28;20197;-75
2022/08/26 02:05:20;;;;;;;4.93;4.53;;;;;;;20.72;98.78;95964.03;5084924;28;20266;-76
2022/08/26 02:07:49;;;;;;;5.07;4.68;;;;;;;20.72;99.43;95960.47;5082726;28;20296;-76
2022/08/26 02:10:17;;;;;;;5.05;4.55;;;;;;;20.72;100.00;95966.75;5082174;28;20200;-76
2022/08/26 02:12:44;;;;;;;5.20;4.60;;;;;;;20.63;100.00;95971.31;5087383;28;20283;-75
2022/08/26 02:15:12;;;;;;;4.90;4.40;;;;;;;20.54;100.00;95964.91;5084879;28;20216;-75
2022/08/26 02:17:44;;;;;;;5.05;4.65;;;;;;;20.44;100.00;95953.31;5076555;28;20236;-76
2022/08/26 02:20:14;;;;;;;5.10;4.60;;;;;;;20.41;100.00;95965.72;5082878;28;20197;-76
2022/08/26 02:22:43;;;;;;;5.53;4.80;;;;;;;20.44;100.00;95970.56;5089264;28;20200;-76
2022/08/26 02:25:16;;;;;;;5.60;5.05;;;;;;;20.47;100.00;95969.97;5084892;28;20280;-75
2022/08/26 02:27:46;;;;;;;5.68;5.10;;;;;;;20.49;100.00;95966.94;5087338;28;20205;-75
2022/08/26 02:30:18;;;;;;;5.45;4.53;;;;;;;20.46;100.00;95967.53;5076704;28;20228;-76
2022/08/26 02:32:45;;;;;;;5.47;4.72;;;;;;;20.45;100.00;95971.41;5087603;28;20211;-76
2022/08/26 02:35:15;;;;;;;6.03;4.88;;;;;;;20.37;100.00;95973.72;5101727;28;20228;-75
2022/08/26 02:37:42;;;;;;;6.32;5.10;;;;;;;20.32;100.00;95967.50;5091133;28;20205;-76
2022/08/26 02:40:11;;;;;;;6.20;4.97;;;;;;;20.27;100.00;95967.56;5085531;28;20208;-75
2022/08/26 02:42:38;;;;;;;6.63;5.07;;;;;;;20.29;100.00;95971.63;5081090;28;20212;-76
2022/08/26 02:45:09;;;;;;;5.65;4.72;;;;;;;20.34;100.00;95973.50;5085938;28;20201;-76
2022/08/26 02:47:37;;;;;;;4.90;4.50;;;;;;;20.42;100.00;95975.53;5097201;28;20310;-75
2022/08/26 02:50:06;;;;;;;5.25;4.75;;;;;;;20.28;100.00;95967.28;5083368;28;20204;-76
2022/08/26 02:52:33;;;;;;;4.68;4.28;;;;;;;20.25;100.00;95967.03;5086078;28;20224;-76
2022/08/26 02:55:00;;;;;;;6.30;4.50;;;;;;;20.23;100.00;95955.59;5079758;28;20209;-75
2022/08/26 02:57:27;;;;;;;5.15;4.65;;;;;;;20.23;100.00;95970.09;5086929;28;20323;-76
2022/08/26 02:59:54;;;;;;;4.68;4.28;;;;;;;20.24;100.00;95977.22;5085937;28;20286;-75
2022/08/26 03:02:23;;;;;;;6.03;4.40;;;;;;;20.25;100.00;95978.00;5086067;28;20197;-76
2022/08/26 03:04:50;;;;;;;4.93;4.43;;;;;;;20.23;100.00;95975.59;5085921;28;20198;-76
2022/08/26 03:07:18;;;;;;;5.80;4.88;;;;;;;20.24;100.00;95977.22;5083782;28;20286;-76
2022/08/26 03:09:45;;;;;;;5.07;4.60;;;;;;;20.26;100.00;95976.91;5085609;28;20282;-76
2022/08/26 03:12:12;;;;;;;7.03;5.32;;;;;;;20.25;100.00;95983.50;5085611;28;20220;-76
2022/08/26 03:14:39;;;;;;;5.72;5.18;;;;;;;20.15;100.00;95975.47;5077384;28;20232;-75
2022/08/26 03:17:06;;;;;;;7.53;5.60;;;;;;;20.07;100.00;95976.97;5084939;28;20236;-76
2022/08/26 03:19:34;;;;;;;6.10;5.50;;;;;;;20.03;100.00;95981.41;5083174;28;20210;-76
2022/08/26 03:22:02;;;;;;;6.13;5.53;;;;;;;20.03;100.00;95971.25;5084302;28;20620;-76
2022/08/26 03:24:29;;;;;;;5.03;4.50;;;;;;;19.99;100.00;95969.41;5080832;28;20261;-75
2022/08/26 03:26:57;;;;;;;5.47;4.70;;;;;;;19.95;100.00;95971.13;5080749;28;20194;-76
2022/08/26 03:32:08;;;;;;;5.97;5.30;;;;;;;19.90;100.00;95971.22;5087521;28;20315;-75
2022/08/26 03:34:36;;;;;;;8.00;6.10;;;;;;;19.70;100.00;95971.53;5084845;28;20197;-76
2022/08/26 03:37:04;;;;;;;7.00;6.13;;;;;;;19.75;100.00;95971.44;5082759;28;20224;-76
2022/08/26 03:39:31;;;;;;;8.30;6.03;;;;;;;19.76;100.00;95975.81;5081433;28;20213;-76
2022/08/26 03:41:58;;;;;;;6.75;5.35;;;;;;;19.62;100.00;95978.50;5092206;28;20205;-75
2022/08/26 03:44:25;;;;;;;6.22;5.63;;;;;;;19.65;100.00;95978.69;5096479;28;20209;-76
2022/08/26 03:46:53;;;;;;;6.07;5.45;;;;;;;19.66;100.00;95974.03;5082454;28;20220;-75
2022/08/26 03:49:20;;;;;;;6.13;5.10;;;;;;;19.68;100.00;95980.03;5081909;28;20205;-75
2022/08/26 03:51:48;;;;;;;6.32;5.63;;;;;;;19.68;100.00;95973.72;5084316;28;20320;-76
2022/08/26 03:54:15;;;;;;;6.32;5.60;;;;;;;19.76;100.00;95978.53;5082180;28;20205;-75
2022/08/26 03:56:42;;;;;;;8.07;5.15;;;;;;;19.77;100.00;95981.00;5086369;28;20285;-76
2022/08/26 03:59:09;;;;;;;6.13;5.45;;;;;;;19.76;100.00;95978.53;5079772;28;20237;-75
2022/08/26 04:01:36;;;;;;;7.38;5.43;;;;;;;19.73;100.00;95982.72;5076015;28;20206;-76
2022/08/26 04:04:04;;;;;;;6.80;5.45;;;;;;;19.65;100.00;95978.69;5089736;28;20259;-76
2022/08/26 04:06:34;;;;;;;5.65;5.15;;;;;;;19.65;100.00;95984.16;5082658;28;20307;-76
2022/08/26 04:09:05;;;;;;;6.80;5.60;;;;;;;19.61;100.00;95974.94;5091261;28;20212;-76
2022/08/26 04:11:34;;;;;;;7.65;4.75;;;;;;;19.54;100.00;95977.22;5082443;28;20274;-76
2022/08/26 04:14:05;;;;;;;8.55;5.10;;;;;;;19.57;100.00;95984.84;5084593;28;20201;-75
2022/08/26 04:16:33;;;;;;;6.68;5.35;;;;;;;19.64;100.00;95985.31;5085812;28;20359;-75
2022/08/26 04:19:00;;;;;;;6.82;6.13;;;;;;;19.59;100.00;95977.16;5082916;28;20217;-76
2022/08/26 04:21:28;;;;;;;7.75;6.13;;;;;;;19.54;100.00;95979.16;5084527;28;20204;-75
2022/08/26 04:23:56;;;;;;;7.55;5.82;;;;;;;19.50;100.00;95978.91;5086794;28;20202;-75
2022/08/26 04:26:24;;;;;;;7.57;5.53;;;;;;;19.44;100.00;95971.88;5095927;28;20204;-76
2022/08/26 04:28:54;;;;;;;6.40;5.67;;;;;;;19.38;100.00;95980.44;5080050;28;20222;-75
2022/08/26 04:31:22;;;;;;;7.57;5.90;;;;;;;19.34;100.00;95984.88;5080857;28;20247;-76
2022/08/26 04:33:50;;;;;;;7.00;5.17;;;;;;;19.35;100.00;95981.84;5083567;28;20268;-76
2022/08/26 04:36:18;;;;;;;7.23;5.50;;;;;;;19.34;100.00;95979.41;5081624;28;20255;-76
2022/08/26 04:38:45;;;;;;;5.97;5.40;;;;;;;19.28;100.00;95989.63;5078240;28;20213;-76
2022/08/26 04:41:12;;;;;;;7.10;5.47;;;;;;;19.24;100.00;95983.09;5077546;28;20202;-76
2022/08/26 04:43:40;;;;;;;5.77;5.20;;;;;;;19.22;100.00;95983.38;5095064;28;20211;-76
2022/08/26 04:46:10;;;;;;;9.27;5.33;;;;;;;19.20;100.00;95982.88;5073585;28;20227;-76
2022/08/26 04:48:37;;;;;;;5.90;5.40;;;;;;;19.11;100.00;95979.16;5080402;28;20205;-76
2022/08/26 04:51:04;;;;;;;6.40;5.80;;;;;;;19.11;100.00;95983.81;5077993;28;20212;-75
2022/08/26 04:53:32;;;;;;;8.97;5.90;;;;;;;19.16;100.00;95984.56;5088937;28;20204;-75
2022/08/26 04:55:59;;;;;;;7.77;5.70;;;;;;;19.23;100.00;95989.66;5080358;28;20270;-75
2022/08/26 04:58:26;;;;;;;6.43;5.73;;;;;;;19.19;100.00;95986.72;5082351;28;20228;-75
2022/08/26 05:00:56;;;;;;;6.33;5.73;;;;;;;19.20;100.00;95984.78;5073720;28;20477;-76
2022/08/26 05:03:25;;;;;;;8.17;5.63;;;;;;;19.19;100.00;95983.16;5066471;28;20208;-75
2022/08/26 05:05:53;;;;;;;6.03;5.47;;;;;;;19.17;100.00;95996.31;5081181;28;20290;-75
2022/08/26 05:08:23;;;;;;;6.30;5.67;;;;;;;19.15;100.00;95993.88;5086209;28;20258;-75
2022/08/26 05:10:53;;;;;;;6.67;5.30;;;;;;;19.10;100.00;95985.72;5080955;28;20299;-75
2022/08/26 05:13:21;;;;;;;8.57;5.20;;;;;;;19.14;100.00;95992.22;5077029;28;20259;-75
2022/08/26 05:15:48;;;;;;;7.83;5.87;;;;;;;19.15;100.00;95990.31;5075139;28;20220;-76
2022/08/26 05:18:19;;;;;;;6.53;5.50;;;;;;;19.15;100.00;95987.56;5081001;28;20205;-76
2022/08/26 05:20:48;;;;;;;6.70;5.37;;;;;;;19.10;100.00;95990.38;5076821;28;20205;-75
2022/08/26 05:23:17;;;;;;;6.20;5.27;;;;;;;19.11;100.00;95981.88;5086390;28;20200;-76
2022/08/26 05:25:46;;;;;;;7.77;5.73;;;;;;;19.20;100.00;95987.53;5079827;28;20220;-75
2022/08/26 05:28:15;;;;;;;5.97;5.37;;;;;;;19.24;100.00;95991.28;5082849;28;20207;-75
2022/08/26 05:30:42;;;;;;;7.67;5.30;;;;;;;19.27;100.00;95987.97;5083176;28;20360;-75
2022/08/26 05:33:09;;;;;;;6.33;4.93;;;;;;;19.34;100.00;95998.56;5093384;28;20227;-76
2022/08/26 05:35:39;;;;;;;5.57;5.07;;;;;;;19.43;100.00;96000.34;5079235;28;20253;-75
2022/08/26 05:38:09;;;;;;;6.80;5.63;;;;;;;19.59;100.00;95995.50;5083992;28;20201;-75
2022/08/26 05:40:39;;;;;;;7.22;5.55;;;;;;;19.73;100.00;96004.63;5074435;28;20209;-76
2022/08/26 05:43:09;;;;;;;6.28;5.40;;;;;;;19.86;100.00;96011.28;5078616;28;20204;-76
2022/08/26 05:45:37;;;;;;;7.13;6.03;;;;;;;19.92;100.00;96010.06;5081415;28;20216;-76
2022/08/26 05:48:07;;;;;;;6.78;5.05;;;;;;;19.96;100.00;96002.91;5084470;28;20246;-75
2022/08/26 05:50:38;;;;;;;8.68;5.20;;;;;;;19.95;100.00;96002.09;5092576;28;20212;-76
2022/08/26 05:53:06;;;;;;;5.80;5.30;;;;;;;20.00;100.00;96014.88;5083501;28;20224;-75
2022/08/26 05:55:33;;;;;;;5.07;4.68;;;;;;;20.04;100.00;96015.91;5080356;28;20205;-76
2022/08/26 05:58:00;;;;;;;6.18;5.40;;;;;;;19.96;100.00;96014.69;5080540;28;20232;-75
2022/08/26 06:00:27;;;;;;;7.05;6.05;;;;;;;19.88;100.00;96017.28;5090388;28;20204;-75
2022/08/26 06:02:54;;;;;;;10.27;6.25;;;;;;;19.86;100.00;96025.78;5081037;28;20204;-75
2022/08/26 06:05:21;;;;;;;6.82;5.57;;;;;;;19.83;100.00;96020.88;5082532;28;20205;-75
2022/08/26 06:10:36;;;;;;;5.88;5.30;;;;;;;19.92;100.00;96021.03;5073713;28;20205;-75
2022/08/26 06:13:04;;;;;;;6.68;5.65;;;;;;;19.96;100.00;96020.16;5075055;28;20216;-76
2022/08/26 06:15:31;;;;;;;6.85;6.05;;;;;;;20.00;100.00;96014.88;5078033;28;20225;-75
2022/08/26 06:17:58;;;;;;;6.50;5.47;;;;;;;20.08;100.00;96014.19;5073737;28;20228;-76
2022/08/26 06:20:25;;;;;;;6.05;5.55;;;;;;;20.09;100.00;96012.28;5091316;28;20566;-76
2022/08/26 06:25:39;;;;;;;6.55;5.15;;;;;;;20.14;100.00;96025.91;5081190;28;20208;-76
2022/08/26 06:28:07;;;;;;;7.10;5.68;;;;;;;20.23;100.00;96024.94;5084540;28;20224;-75
2022/08/26 06:30:38;;;;;;;5.35;4.85;;;;;;;20.26;100.00;96024.31;5072391;28;20305;-75
2022/08/26 06:33:05;;;;;;;6.28;5.00;;;;;;;20.30;100.00;96021.81;5081795;28;20229;-76
2022/08/26 06:35:36;;;;;;;8.68;5.40;;;;;;;20.26;100.00;96018.84;5087148;28;20201;-76
2022/08/26 06:38:06;;;;;;;5.97;5.22;;;;;;;20.20;100.00;96013.75;5075167;28;20206;-75
2022/08/26 06:40:35;;;;;;;5.65;5.15;;;;;;;20.21;100.00;96015.38;5082021;28;20212;-74
2022/08/26 06:43:02;;;;;;;7.38;5.15;;;;;;;20.32;100.00;96027.81;5081061;28;20204;-75
2022/08/26 06:45:29;;;;;;;7.05;5.15;;;;;;;20.37;100.00;96016.78;5084207;28;20274;-74
2022/08/26 06:47:56;;;;;;;7.07;5.53;;;;;;;20.38;100.00;96011.00;5069608;28;20213;-75
2022/08/26 06:50:23;;;;;;;8.68;5.32;;;;;;;20.44;100.00;96011.72;5085220;28;20287;-74
2022/08/26 06:52:51;;;;;;;8.68;5.05;;;;;;;20.48;100.00;96020.97;5082219;28;20224;-75
2022/08/26 06:55:20;;;;;;;8.65;5.40;;;;;;;20.54;100.00;96007.97;5080583;28;20209;-74
2022/08/26 06:57:47;;;;;;;6.40;5.80;;;;;;;20.63;100.00;96011.66;5075077;28;20225;-74
2022/08/26 07:00:15;;;;;;;6.18;5.28;;;;;;;20.75;100.00;96014.75;5086226;28;20231;-74
2022/08/26 07:02:42;;;;;;;9.02;5.20;;;;;;;20.85;100.00;96016.44;5076577;28;20209;-75
2022/08/26 07:05:10;;;;;;;7.22;6.25;;;;;;;20.90;100.00;96013.63;5080575;28;20220;-74
2022/08/26 07:07:37;;;;;;;8.27;5.72;;;;;;;20.91;100.00;96005.09;5098990;27;20209;-75
2022/08/26 07:10:04;;;;;;;5.35;4.80;;;;;;;21.03;100.00;96010.06;5093265;28;20201;-74
2022/08/26 07:12:34;;;;;;;5.63;5.13;;;;;;;21.11;100.00;96015.66;5083207;28;20308;-75
2022/08/26 07:15:01;;;;;;;6.00;5.50;;;;;;;21.19;100.00;96018.84;5084054;28;20302;-75
2022/08/26 07:17:28;;;;;;;10.30;5.50;;;;;;;21.23;100.00;96019.88;5090124;28;20236;-75
2022/08/26 07:19:55;;;;;;;6.60;5.00;;;;;;;21.29;100.00;96018.63;5086772;28;20280;-75
2022/08/26 07:22:22;;;;;;;5.75;5.25;;;;;;;21.39;100.00;96018.44;5085670;28;20193;-75
2022/08/26 07:24:49;;;;;;;6.03;5.40;;;;;;;21.50;100.00;96019.84;5087657;28;20273;-75
2022/08/26 07:27:17;;;;;;;9.45;5.10;;;;;;;21.62;100.00;96019.31;5091421;28;20269;-75
2022/08/26 07:29:45;;;;;;;8.48;6.18;;;;;;;21.71;100.00;96020.19;5091069;28;20201;-74
2022/08/26 07:32:14;;;;;;;11.38;6.28;;;;;;;21.73;100.00;96013.28;5082553;28;20227;-74
2022/08/26 07:34:42;;;;;;;7.70;6.45;;;;;;;21.76;100.00;96018.16;5084752;28;20204;-75
2022/08/26 07:37:09;;;;;;;13.77;7.15;;;;;;;21.81;100.00;96020.78;5075334;28;20264;-75
2022/08/26 07:39:36;;;;;;;8.25;5.53;;;;;;;21.94;100.00;96016.38;5078905;28;20196;-74
2022/08/26 07:42:05;;;;;;;9.65;6.55;;;;;;;22.06;100.00;96016.66;5084389;28;20193;-75
2022/08/26 07:44:33;;;;;;;7.05;5.65;;;;;;;22.15;100.00;96022.22;5082543;28;20212;-75
2022/08/26 07:47:01;;;;;;;5.80;5.18;;;;;;;22.19;100.00;96020.50;5094627;28;20298;-73
2022/08/26 07:49:28;;;;;;;6.75;5.30;;;;;;;22.20;100.00;96022.91;5083835;28;20205;-75
2022/08/26 07:51:56;;;;;;;7.88;5.72;;;;;;;22.27;100.00;96015.06;5082139;28;20237;-75
2022/08/26 07:54:23;;;;;;;8.40;5.85;;;;;;;22.33;97.42;96009.44;5084182;28;20204;-75
2022/08/26 07:56:50;;;;;;;7.72;5.88;;;;;;;22.53;96.45;96015.25;5086560;28;20316;-75
2022/08/26 07:59:18;;;;;;;7.38;5.50;;;;;;;22.76;95.43;96015.22;5076526;28;20202;-75
2022/08/26 08:01:46;;;;;;;6.63;5.97;;;;;;;22.90;95.07;96011.25;5082995;28;20236;-75
2022/08/26 08:04:18;;;;;;;7.03;6.00;;;;;;;23.20;93.78;96006.84;5086501;28;20216;-75
2022/08/26 08:06:47;;;;;;;8.45;5.80;;;;;;;23.66;92.99;96011.03;5081560;28;20281;-75
2022/08/26 08:09:15;;;;;;;6.55;5.90;;;;;;;23.98;86.96;96007.03;5070535;28;20207;-75
2022/08/26 08:11:43;;;;;;;6.80;5.47;;;;;;;24.26;81.50;95999.25;5085811;28;20212;-75
2022/08/26 08:14:11;;;;;;;8.32;5.50;;;;;;;24.49;79.25;96000.69;5086402;28;20212;-75
2022/08/26 08:16:38;;;;;;;6.13;5.53;;;;;;;24.68;78.94;96003.06;5088388;28;20316;-76
2022/08/26 08:19:05;;;;;;;6.55;5.72;;;;;;;24.81;77.40;96011.16;5095755;28;20213;-75
2022/08/26 08:21:33;;;;;;;5.63;5.13;;;;;;;24.89;77.59;96002.06;5069272;28;20208;-76
2022/08/26 08:24:00;;;;;;;6.68;5.35;;;;;;;25.04;75.26;96002.66;5090411;28;20227;-75
2022/08/26 08:26:27;;;;;;;8.23;6.35;;;;;;;25.12;74.23;96004.59;5094451;28;20216;-75
2022/08/26 08:28:56;;;;;;;5.72;5.22;;;;;;;25.22;72.07;96006.97;5079215;28;20201;-76
2022/08/26 08:31:26;;;;;;;5.60;4.85;;;;;;;25.34;69.47;96012.63;5084997;28;20216;-76
2022/08/26 08:33:53;;;;;;;5.10;4.60;;;;;;;25.24;69.76;95994.47;5084136;28;20249;-76
2022/08/26 08:36:21;;;;;;;6.03;5.20;;;;;;;25.32;69.04;96003.84;5071482;28;20201;-75
2022/08/26 08:38:50;;;;;;;8.15;6.07;;;;;;;25.37;67.27;96000.88;5079916;28;20218;-76
2022/08/26 08:41:30;;;;;;;6.72;5.85;;;;;;;25.04;67.04;95988.84;5084045;28;20201;-75
2022/08/26 08:44:00;;;;;;;7.80;5.18;;;;;;;25.27;69.21;95998.50;5081756;28;20201;-76
2022/08/26 08:46:29;;;;;;;5.68;4.72;;;;;;;25.64;68.97;95994.09;5083704;28;20299;-76
2022/08/26 08:48:59;;;;;;;5.00;4.57;;;;;;;25.89;66.33;95990.34;5082600;28;20213;-76
2022/08/26 08:51:38;;;;;;;6.35;5.28;;;;;;;26.04;65.65;95991.69;5086355;28;20212;-76
2022/08/26 08:54:08;;;;;;;5.38;4.88;;;;;;;26.19;67.84;95993.06;5079035;28;20348;-76
2022/08/26 08:56:39;;;;;;;5.43;4.93;;;;;;;26.41;66.62;95991.91;5076345;28;20208;-76
2022/08/26 08:59:14;;;;;;;6.85;5.68;;;;;;;26.46;68.19;95981.41;5079305;28;20265;-76
2022/08/26 09:01:51;;;;;;;6.05;5.45;;;;;;;26.31;68.69;95982.06;5077848;28;20220;-76
2022/08/26 09:04:36;;;;;;;7.40;5.78;;;;;;;26.41;68.23;95989.13;5084262;28;20209;-76
2022/08/26 09:07:06;;;;;;;5.65;5.15;;;;;;;26.50;66.79;95987.09;5077294;28;20212;-76
2022/08/26 09:09:40;;;;;;;5.82;5.22;;;;;;;26.64;67.21;95990.34;5082476;28;20219;-76
2022/08/26 09:12:12;;;;;;;5.97;5.47;;;;;;;26.88;66.42;95984.88;5082273;28;20265;-77
2022/08/26 09:14:40;;;;;;;5.97;5.38;;;;;;;26.78;65.97;95982.56;5095057;28;20277;-76
2022/08/26 09:17:17;;;;;;;8.85;5.40;;;;;;;27.03;66.54;95975.94;5070651;28;20328;-76
2022/08/26 09:19:51;;;;;;;6.22;5.60;;;;;;;27.26;66.65;95975.50;5096962;27;20300;-76
2022/08/26 09:22:29;;;;;;;7.25;5.75;;;;;;;27.30;65.96;95979.19;5084468;28;20235;-76
2022/08/26 09:24:57;;;;;;;5.82;5.43;;;;;;;27.40;65.33;95973.16;5082012;28;20208;-77
2022/08/26 09:27:41;;;;;;;7.93;5.70;;;;;;;27.52;64.93;95962.09;5075033;28;20232;-76
2022/08/26 09:30:11;;;;;;;6.63;5.30;;;;;;;27.36;64.60;95973.06;5084305;28;20200;-76
2022/08/26 09:32:38;;;;;;;6.05;5.55;;;;;;;27.28;65.74;95964.88;5074267;28;20197;-76
2022/08/26 09:35:08;;;;;;;6.63;5.93;;;;;;;27.16;65.30;95965.66;5080462;28;20236;-76
2022/08/26 09:37:39;;;;;;;5.45;4.93;;;;;;;27.31;67.47;95964.97;5079446;28;20221;-76
2022/08/26 09:40:25;;;;;;;6.75;5.40;;;;;;;27.47;66.50;95959.56;5087333;28;20312;-76
2022/08/26 09:43:16;;;;;;;6.15;5.55;;;;;;;27.61;67.48;95956.44;5082338;28;20204;-76
2022/08/26 09:45:46;;;;;;;6.20;5.60;;;;;;;27.48;67.09;95961.16;5070229;28;20286;-76
2022/08/26 09:48:24;;;;;;;8.93;7.05;;;;;;;27.43;67.87;95959.44;5091167;28;20202;-77
2022/08/26 09:50:54;;;;;;;7.70;5.75;;;;;;;27.34;66.54;95955.16;5092403;28;20204;-76
2022/08/26 09:53:24;;;;;;;7.57;5.53;;;;;;;27.15;67.61;95952.16;5085126;28;20212;-75
2022/08/26 09:56:12;;;;;;;7.38;5.70;;;;;;;26.91;68.66;95948.22;5084403;28;20273;-75
2022/08/26 09:58:41;;;;;;;7.75;5.30;;;;;;;26.79;67.53;95945.41;5081313;28;20288;-75
2022/08/26 10:01:14;;;;;;;6.40;5.32;;;;;;;26.73;68.75;95952.31;5080038;28;20213;-75
2022/08/26 10:03:43;;;;;;;7.78;6.00;;;;;;;26.75;69.29;95944.47;5090642;28;20204;-75
2022/08/26 10:06:25;;;;;;;8.07;6.10;;;;;;;26.77;68.34;95941.34;5087874;28;20204;-74
2022/08/26 10:08:55;;;;;;;7.15;5.78;;;;;;;26.84;67.72;95933.28;5083419;28;20224;-75
2022/08/26 10:11:30;;;;;;;5.97;5.32;;;;;;;27.00;67.68;95939.78;5083658;28;20205;-75
2022/08/26 10:14:03;;;;;;;6.30;5.70;;;;;;;27.06;66.90;95938.41;5069753;28;20215;-76
2022/08/26 10:16:42;;;;;;;6.47;5.55;;;;;;;27.17;65.39;95941.53;5077565;28;20263;-77
2022/08/26 10:19:13;;;;;;;6.93;5.40;;;;;;;27.17;66.06;95925.72;5073373;28;20412;-77
2022/08/26 10:21:51;;;;;;;6.05;5.40;;;;;;;27.23;64.26;95924.31;5080640;28;20221;-77
2022/08/26 10:24:25;;;;;;;5.72;5.20;;;;;;;27.31;62.00;95911.50;5078814;28;20217;-77
2022/08/26 10:27:02;;;;;;;6.43;5.10;;;;;;;27.38;60.22;95917.28;5099969;28;20251;-77
2022/08/26 10:29:35;;;;;;;6.00;4.97;;;;;;;27.40;60.06;95920.50;5081885;28;20216;-77
2022/08/26 10:32:12;;;;;;;5.40;4.75;;;;;;;27.38;60.32;95922.81;5076956;28;20280;-77
2022/08/26 10:34:40;;;;;;;8.05;4.57;;;;;;;27.52;58.23;95917.72;5077058;28;20212;-77
2022/08/26 10:37:15;;;;;;;4.80;4.40;;;;;;;27.61;56.64;95918.41;5092159;28;20215;-77
2022/08/26 10:39:50;;;;;;;5.32;4.32;;;;;;;27.73;57.18;95920.38;5084997;28;20204;-78
2022/08/26 10:42:26;;;;;;;5.28;4.60;;;;;;;27.85;55.08;95915.59;5081597;28;20215;-77
2022/08/26 10:44:58;;;;;;;5.20;4.70;;;;;;;27.99;54.49;95914.38;5089305;28;20276;-77
2022/08/26 10:47:34;;;;;;;6.55;4.60;;;;;;;28.06;55.42;95918.19;5077619;28;20251;-77
2022/08/26 10:50:03;;;;;;;6.38;4.65;;;;;;;28.24;53.99;95910.41;5078589;28;20208;-77
2022/08/26 10:52:44;;;;;;;6.43;4.40;;;;;;;28.32;54.29;95901.09;5080387;28;20208;-78
2022/08/26 10:55:19;;;;;;;6.53;4.13;;;;;;;28.30;55.26;95897.88;5082913;28;20224;-78
2022/08/26 10:57:56;;;;;;;6.88;4.30;;;;;;;28.42;52.35;95900.56;5086573;28;20229;-77
2022/08/26 11:03:28;;;;;;;5.93;3.92;;;;;;;28.20;50.78;95881.72;5085025;28;20193;-78
2022/08/26 11:06:23;;;;;;;4.28;3.88;;;;;;;28.19;52.15;95889.22;5080079;28;20213;-78
2022/08/26 11:08:52;;;;;;;4.88;3.47;;;;;;;28.31;50.53;95882.00;5072464;28;20274;-78
2022/08/26 11:11:44;;;;;;;4.97;3.70;;;;;;;28.64;50.98;95890.03;5080128;28;20257;-78
2022/08/26 11:14:34;;;;;;;4.57;3.50;;;;;;;28.73;50.70;95890.66;5097935;28;20220;-78
2022/08/26 11:17:01;;;;;;;3.90;3.58;;;;;;;28.74;50.40;95883.94;5096106;28;20290;-78
2022/08/26 11:20:05;;;;;;;6.88;3.83;;;;;;;28.67;50.27;95878.22;5078359;28;20210;-77
2022/08/26 11:22:36;;;;;;;4.30;3.58;;;;;;;28.78;49.67;95876.53;5096600;28;20219;-76
2022/08/26 11:25:09;;;;;;;3.70;3.40;;;;;;;28.92;48.94;95882.47;5086206;28;20208;-76
2022/08/26 11:28:04;;;;;;;4.68;3.50;;;;;;;29.18;48.48;95881.88;5085262;28;20202;-76
2022/08/26 11:30:46;;;;;;;4.05;3.75;;;;;;;29.49;48.69;95883.81;5102018;28;20201;-76
2022/08/26 11:33:58;;;;;;;4.03;3.72;;;;;;;29.46;47.54;95874.22;5081643;28;20270;-75
2022/08/26 11:36:40;;;;;;;3.15;2.85;;;;;;;29.34;47.27;95869.56;5084739;28;20223;-77
2022/08/26 11:39:17;;;;;;;3.78;3.38;;;;;;;29.37;46.69;95868.06;5073897;28;20217;-75
2022/08/26 11:41:49;;;;;;;6.15;3.90;;;;;;;29.45;48.09;95863.47;5074407;28;20201;-76
2022/08/26 11:44:19;;;;;;;4.38;3.38;;;;;;;29.69;49.71;95868.75;5079136;28;20197;-76
2022/08/26 11:46:56;;;;;;;3.38;3.13;;;;;;;29.59;45.94;95869.34;5084708;28;20300;-76
2022/08/26 11:49:23;;;;;;;4.28;3.22;;;;;;;29.47;47.80;95859.16;5070622;28;20205;-77
2022/08/26 11:51:50;;;;;;;5.07;3.97;;;;;;;29.26;48.83;95862.22;5082574;28;20377;-76
2022/08/26 11:54:20;;;;;;;4.07;3.78;;;;;;;29.08;49.45;95857.44;5086888;28;20231;-76